Terminal Aerodrome Forecast
Issued by NWS

Home | Current Version | Previous Version | Text Only | Print | Product List | Glossary On
Versions: 1 2 3 4 5 6 7 8 9 10 11 12 13 14 15 16 17 18 19 20 21 22 23
621
FTUS42 KFFC 261957 AAA
TAFRYY
TAF AMD
KRYY 261957Z 2620/2718 20005KT P6SM VCSH SCT040 BKN060
      TEMPO 2623/2701 VRB15G25KT 3SM SHRA BKN035
     FM270200 VRB03KT P6SM SCT040 BKN200
     FM271100 VRB03KT P6SM BKN006 OVC250
     FM271400 10005KT P6SM BKN012
     FM271600 10007KT P6SM VCSH BKN025 OVC180=

USA.gov is the U.S. government's official web portal to all federal, state and local government web resources and services.